Time;durP1;ratioP1;P1;durP2;ratioP2;P2;SDS_P1;SDS_P2;PMS_P1;PMS_P2;Temp;Humidity;BMP_temperature;BMP_pressure;BME280_temperature;BME280_humidity;BME280_pressure;Samples;Min_cycle;Max_cycle;Signal;HPM_P1;HPM_P2
2023/08/07 00:00:26;;;;;;;;;;;19.50;99.90;;;;;;5108478;27;19998;-81
2023/08/07 00:02:51;;;;;;;;;;;19.50;99.90;;;;;;5125985;27;19957;-80
2023/08/07 00:05:17;;;;;;;;;;;19.50;99.90;;;;;;5126858;27;20326;-77
2023/08/07 00:07:43;;;;;;;;;;;19.50;99.90;;;;;;5127414;27;20286;-77
2023/08/07 00:10:09;;;;;;;;;;;19.50;99.90;;;;;;5126665;27;19903;-78
2023/08/07 00:12:34;;;;;;;;;;;19.50;99.90;;;;;;5108677;28;20530;-80
2023/08/07 00:15:00;;;;;;;;;;;19.50;99.90;;;;;;5126627;28;19908;-78
2023/08/07 00:17:26;;;;;;;;;;;19.50;99.90;;;;;;5126980;28;20003;-77
2023/08/07 00:19:52;;;;;;;;;;;19.50;99.90;;;;;;5126492;28;20423;-80
2023/08/07 00:22:18;;;;;;;;;;;19.50;99.90;;;;;;5108699;28;19972;-77
2023/08/07 00:24:44;;;;;;;;;;;19.50;99.90;;;;;;5126395;28;19995;-80
2023/08/07 00:27:14;;;;;;;;;;;19.50;99.90;;;;;;5108515;28;20391;-80
2023/08/07 00:29:40;;;;;;;;;;;19.40;99.90;;;;;;5126543;28;19907;-77
2023/08/07 00:32:05;;;;;;;;;;;19.50;99.90;;;;;;5127169;28;20272;-77
2023/08/07 00:34:31;;;;;;;;;;;19.50;99.90;;;;;;5126561;27;19911;-80
2023/08/07 00:36:57;;;;;;;;;;;19.40;99.90;;;;;;5130518;27;19973;-77
2023/08/07 00:39:23;;;;;;;;;;;19.40;99.90;;;;;;5112513;27;20003;-77
2023/08/07 00:41:48;;;;;;;;;;;19.40;99.90;;;;;;5131014;27;19943;-77
2023/08/07 00:44:14;;;;;;;;;;;19.30;99.90;;;;;;5112532;27;19911;-80
2023/08/07 00:46:39;;;;;;;;;;;19.30;99.90;;;;;;5130695;27;20090;-80
2023/08/07 00:49:05;;;;;;;;;;;19.30;99.90;;;;;;5112335;27;20302;-77
2023/08/07 00:51:31;;;;;;;;;;;19.30;99.90;;;;;;5130589;27;19950;-76
2023/08/07 00:53:58;;;;;;;;;;;19.20;99.90;;;;;;5131119;27;20344;-77
2023/08/07 00:56:24;;;;;;;;;;;19.20;99.90;;;;;;5131018;27;19939;-80
2023/08/07 00:58:50;;;;;;;;;;;19.10;99.90;;;;;;5112200;27;19934;-80
2023/08/07 01:01:16;;;;;;;;;;;19.20;99.90;;;;;;5130368;27;19965;-77
2023/08/07 01:03:41;;;;;;;;;;;19.10;99.90;;;;;;5129776;27;20679;-81
2023/08/07 01:06:07;;;;;;;;;;;19.10;99.90;;;;;;5130077;27;19903;-77
2023/08/07 01:08:33;;;;;;;2.50;0.60;;;19.10;99.90;;;;;;5111992;27;20506;-80
2023/08/07 01:11:17;;;;;;;1.00;0.80;;;19.00;99.90;;;;;;5129625;27;20193;-77
2023/08/07 01:14:02;;;;;;;0.67;0.60;;;19.00;99.90;;;;;;5130148;27;20408;-77
2023/08/07 01:16:45;;;;;;;2.10;0.80;;;19.00;99.90;;;;;;5111232;27;20811;-77
2023/08/07 01:19:27;;;;;;;0.70;0.57;;;19.00;99.90;;;;;;5110934;27;20592;-77
2023/08/07 01:22:07;;;;;;;1.23;0.73;;;19.00;99.90;;;;;;5111449;27;20429;-81
2023/08/07 01:24:33;;;;;;;1.50;0.70;;;19.00;99.90;;;;;;5129409;27;20473;-77
2023/08/07 01:27:29;;;;;;;0.53;0.53;;;19.00;99.90;;;;;;5129956;27;20425;-80
2023/08/07 01:30:20;;;;;;;0.80;0.80;;;19.00;99.90;;;;;;5105313;27;20468;-77
2023/08/07 01:33:03;;;;;;;0.80;0.60;;;19.00;99.90;;;;;;5129679;27;20678;-77
2023/08/07 01:35:33;;;;;;;1.90;0.60;;;19.00;99.90;;;;;;5129399;27;20528;-77
2023/08/07 01:38:01;;;;;;;0.80;0.80;;;19.00;99.90;;;;;;5110934;27;20465;-81
2023/08/07 01:40:28;;;;;;;0.93;0.50;;;19.00;99.90;;;;;;5110615;27;20975;-80
2023/08/07 01:42:54;;;;;;;0.53;0.53;;;19.00;99.90;;;;;;5110765;27;20435;-81
2023/08/07 01:45:27;;;;;;;1.63;0.77;;;19.00;99.90;;;;;;5128996;27;20832;-77
2023/08/07 01:47:53;;;;;;;0.90;0.70;;;18.90;99.90;;;;;;5129198;27;20418;-77
2023/08/07 01:50:23;;;;;;;0.70;0.70;;;18.90;99.90;;;;;;5110500;27;21085;-77
2023/08/07 01:52:48;;;;;;;0.50;0.50;;;18.90;99.90;;;;;;5110796;27;20180;-80
2023/08/07 01:55:17;;;;;;;0.50;0.50;;;18.90;99.90;;;;;;5128433;27;20430;-77
2023/08/07 01:57:42;;;;;;;0.57;0.50;;;18.90;99.90;;;;;;5129397;27;20629;-77
2023/08/07 02:00:09;;;;;;;0.60;0.60;;;18.80;99.90;;;;;;5110358;27;20433;-80
2023/08/07 02:02:36;;;;;;;0.60;0.50;;;18.80;99.90;;;;;;5128939;27;20665;-77
2023/08/07 02:05:02;;;;;;;2.77;0.70;;;18.80;99.90;;;;;;5109798;27;20551;-80
2023/08/07 02:07:28;;;;;;;0.70;0.60;;;18.80;99.90;;;;;;5109300;27;20447;-81
2023/08/07 02:09:54;;;;;;;0.57;0.57;;;18.80;99.90;;;;;;5109816;27;21016;-77
2023/08/07 02:12:20;;;;;;;5.60;0.87;;;18.80;99.90;;;;;;5110246;27;20520;-80
2023/08/07 02:14:46;;;;;;;0.90;0.80;;;18.90;99.90;;;;;;5128524;27;20856;-78
2023/08/07 02:17:11;;;;;;;0.70;0.60;;;18.80;99.90;;;;;;5128921;27;20182;-78
2023/08/07 02:19:37;;;;;;;1.20;0.57;;;18.90;99.90;;;;;;5128263;27;20813;-77
2023/08/07 02:22:03;;;;;;;0.83;0.50;;;18.90;99.90;;;;;;5128616;27;20760;-81
2023/08/07 02:24:29;;;;;;;0.80;0.70;;;18.90;99.90;;;;;;5109844;27;20221;-81
2023/08/07 02:26:55;;;;;;;1.37;0.50;;;18.90;99.90;;;;;;5128544;27;20478;-81
2023/08/07 02:29:20;;;;;;;0.60;0.50;;;19.00;99.90;;;;;;5109378;27;20197;-78
2023/08/07 02:31:46;;;;;;;1.87;0.63;;;19.00;99.90;;;;;;5128570;27;20180;-80
2023/08/07 02:34:12;;;;;;;1.73;0.70;;;19.00;99.90;;;;;;5128593;27;20185;-77
2023/08/07 02:36:37;;;;;;;0.60;0.60;;;19.00;99.90;;;;;;5128456;27;20181;-81
2023/08/07 02:39:04;;;;;;;0.60;0.57;;;19.00;99.90;;;;;;5127914;27;20174;-77
2023/08/07 02:41:31;;;;;;;1.70;0.63;;;19.00;99.90;;;;;;5109004;27;20242;-78
2023/08/07 02:43:57;;;;;;;1.57;0.70;;;19.00;99.90;;;;;;5109475;27;20878;-76
2023/08/07 02:46:23;;;;;;;0.90;0.50;;;19.00;99.90;;;;;;5109455;27;20465;-80
2023/08/07 02:48:48;;;;;;;1.17;0.83;;;19.00;99.90;;;;;;5128404;27;20691;-80
2023/08/07 02:51:14;;;;;;;0.60;0.60;;;19.00;99.90;;;;;;5127463;27;20206;-77
2023/08/07 02:53:40;;;;;;;0.60;0.57;;;19.10;99.90;;;;;;5127909;27;20175;-81
2023/08/07 02:56:06;;;;;;;0.90;0.50;;;19.10;99.90;;;;;;5108817;27;20732;-77
2023/08/07 02:58:31;;;;;;;0.60;0.50;;;19.00;99.90;;;;;;5127456;27;20223;-77
2023/08/07 03:01:02;;;;;;;2.47;0.50;;;19.10;99.90;;;;;;5108823;27;20193;-81
2023/08/07 03:03:28;;;;;;;0.60;0.60;;;19.00;99.90;;;;;;5127916;27;20201;-77
2023/08/07 03:05:53;;;;;;;1.20;0.50;;;19.10;99.90;;;;;;5126836;27;21006;-80
2023/08/07 03:08:19;;;;;;;0.67;0.67;;;19.10;99.90;;;;;;5127001;27;20181;-77
2023/08/07 03:10:56;;;;;;;0.80;0.60;;;19.20;99.90;;;;;;5127296;27;20201;-81
2023/08/07 03:13:23;;;;;;;0.70;0.50;;;19.30;99.90;;;;;;5127611;27;20652;-77
2023/08/07 03:15:50;;;;;;;1.00;0.60;;;19.30;99.90;;;;;;5127155;27;20489;-81
2023/08/07 03:18:16;;;;;;;0.70;0.70;;;19.30;99.90;;;;;;5127461;27;20471;-81
2023/08/07 03:20:43;;;;;;;0.83;0.60;;;19.30;99.90;;;;;;5108524;27;20480;-77
2023/08/07 03:23:09;;;;;;;0.60;0.60;;;19.30;99.90;;;;;;5108962;27;20499;-80
2023/08/07 03:25:35;;;;;;;0.83;0.70;;;19.30;99.90;;;;;;5108485;27;20488;-77
2023/08/07 03:28:01;;;;;;;0.60;0.50;;;19.30;99.90;;;;;;5108830;27;20438;-77
2023/08/07 03:30:26;;;;;;;0.90;0.90;;;19.20;99.90;;;;;;5126580;27;20296;-80
2023/08/07 03:32:52;;;;;;;3.47;0.60;;;19.20;99.90;;;;;;5127571;27;20566;-77
2023/08/07 03:35:18;;;;;;;0.60;0.53;;;19.20;99.90;;;;;;5126197;27;20490;-81
2023/08/07 03:37:44;;;;;;;1.00;0.70;;;19.20;99.90;;;;;;5127207;27;20661;-81
2023/08/07 03:40:10;;;;;;;1.33;0.60;;;19.10;99.90;;;;;;5107498;27;20423;-81
2023/08/07 03:42:36;;;;;;;2.83;0.67;;;19.10;99.90;;;;;;5126880;27;20425;-77
2023/08/07 03:45:02;;;;;;;3.63;0.80;;;19.10;99.90;;;;;;5126470;27;20870;-81
2023/08/07 03:47:28;;;;;;;1.53;0.70;;;18.90;99.90;;;;;;5108722;27;20185;-77
2023/08/07 03:49:54;;;;;;;1.97;0.90;;;18.80;99.90;;;;;;5107727;27;20500;-76
2023/08/07 03:52:20;;;;;;;1.23;0.77;;;18.60;99.90;;;;;;5126993;27;20264;-81
2023/08/07 03:54:46;;;;;;;0.77;0.77;;;18.50;99.90;;;;;;5107540;27;20193;-77
2023/08/07 03:57:11;;;;;;;2.70;0.97;;;18.40;99.90;;;;;;5126733;27;20858;-76
